Capitol Logistics 991

Operating for DHL



EGHI
Southampton Airport
Southampton, GB
EGNX
East Midlands Airport
Derby, GB

Activity Log

Date Flight Route Aircraft Duration
01/06/2022 CPX991 NORRY Q41 SILVA M605 DTY DTY1E B738 0h 44m

Route Details

Aircraft Information
Group: European Fleet
Types: A30F,A31F,B738
Route Data
Demand: L
Distance: 113nm
Duration: 1h 00m
Recm'd Route: NORRY Q41 SILVA M605 DTY DTY1E
Origin Wx: EGHI 271950Z 30005KT 270V330 CAVOK 17/08 Q1026
Dest. Wx: EGNX 272220Z 31009KT CAVOK 09/06 Q1027
Notes:

Financial History
Total Freight: 19,008lbs
Average Load: 19,008lbs/flt
Fuel Used: 3,633lbs
Avg. Fuel Used: 3,633lbs/flt
Fuel Expense: $3,817
Avg. Fuel Expense: $3,817
Avg. Fuel Cost: $1.05/lbs
Total Gross Income: $39,233
Pilot Pay: $259
Total Expenses: $6,005
Total Revenue: $29,297
Average Revenue: $39,232.51